Time;durP1;ratioP1;P1;durP2;ratioP2;P2;SDS_P1;SDS_P2;PMS_P1;PMS_P2;Temp;Humidity;BMP_temperature;BMP_pressure;BME280_temperature;BME280_humidity;BME280_pressure;Samples;Min_cycle;Max_cycle;Signal;HPM_P1;HPM_P2
2022/09/27 00:01:03;;;;;;;18.08;10.35;;;;;;;11.45;100.00;97550.03;4422925;32;20136;-77
2022/09/27 00:03:31;;;;;;;14.23;9.27;;;;;;;11.50;100.00;97542.47;4422271;32;20497;-77
2022/09/27 00:06:04;;;;;;;12.30;8.95;;;;;;;11.50;100.00;97542.47;4422985;32;20115;-77
2022/09/27 00:08:32;;;;;;;14.95;8.85;;;;;;;11.48;100.00;97539.22;4423315;32;20098;-77
2022/09/27 00:11:25;;;;;;;14.40;8.63;;;;;;;11.46;100.00;97535.94;4422894;32;20128;-77
2022/09/27 00:13:57;;;;;;;12.02;8.18;;;;;;;11.42;100.00;97531.22;4360256;32;20121;-77
2022/09/27 00:16:27;;;;;;;14.23;9.20;;;;;;;11.39;100.00;97529.75;4360243;32;20193;-77
2022/09/27 00:18:59;;;;;;;13.07;9.00;;;;;;;11.32;100.00;97526.19;4360403;32;20100;-77
2022/09/27 00:21:27;;;;;;;12.93;8.35;;;;;;;11.28;100.00;97527.50;4360305;32;20135;-77
2022/09/27 00:23:54;;;;;;;13.50;8.45;;;;;;;11.24;100.00;97527.06;4360299;32;20127;-78
2022/09/27 00:26:21;;;;;;;11.60;8.60;;;;;;;11.16;100.00;97521.84;4360169;32;20190;-77
2022/09/27 00:28:48;;;;;;;13.60;8.10;;;;;;;11.05;100.00;97523.03;4360107;32;20122;-77
2022/09/27 00:31:19;;;;;;;12.88;8.25;;;;;;;10.96;100.00;97526.69;4360121;32;20456;-77
2022/09/27 00:33:49;;;;;;;11.93;7.87;;;;;;;10.90;100.00;97522.97;4360249;32;20527;-78
2022/09/27 00:36:18;;;;;;;15.32;8.70;;;;;;;10.88;100.00;97518.88;4360120;32;20482;-77
2022/09/27 00:38:45;;;;;;;14.43;8.73;;;;;;;10.86;100.00;97516.41;4360127;32;20134;-77
2022/09/27 00:41:15;;;;;;;17.92;9.25;;;;;;;10.84;100.00;97510.53;4353347;32;20111;-77
2022/09/27 00:43:48;;;;;;;12.57;8.95;;;;;;;10.93;100.00;97513.91;4345363;33;20121;-77
2022/09/27 00:46:34;;;;;;;15.30;9.73;;;;;;;11.00;100.00;97501.78;4345385;33;20103;-77
2022/09/27 00:49:21;;;;;;;12.73;9.23;;;;;;;11.01;100.00;97506.03;4345356;33;20582;-78
2022/09/27 00:51:54;;;;;;;14.25;9.50;;;;;;;11.03;100.00;97504.06;4410951;32;20120;-77
2022/09/27 00:54:24;;;;;;;14.40;9.23;;;;;;;11.05;100.00;97502.06;4422667;32;20077;-77
2022/09/27 00:56:51;;;;;;;14.02;9.50;;;;;;;11.05;100.00;97498.63;4408870;32;20085;-77
2022/09/27 00:59:31;;;;;;;17.20;9.88;;;;;;;11.08;100.00;97501.75;4408795;32;20182;-78
2022/09/27 01:01:58;;;;;;;21.92;9.88;;;;;;;11.13;100.00;97502.03;4422888;32;20116;-77
2022/09/27 01:04:27;;;;;;;17.77;12.13;;;;;;;11.16;100.00;97506.13;4422614;32;21004;-78
2022/09/27 01:06:54;;;;;;;19.37;12.10;;;;;;;11.21;100.00;97505.62;4411042;32;20112;-77
2022/09/27 01:09:22;;;;;;;17.98;11.73;;;;;;;11.26;100.00;97503.28;4422601;32;20098;-77
2022/09/27 01:12:24;;;;;;;24.52;13.88;;;;;;;11.28;100.00;97498.66;4421467;32;20106;-77
2022/09/27 01:15:07;;;;;;;20.92;13.85;;;;;;;11.31;100.00;97495.69;4422290;32;20089;-78
2022/09/27 01:18:07;;;;;;;33.67;17.00;;;;;;;11.32;100.00;97499.97;4422492;32;20082;-77
2022/09/27 01:20:57;;;;;;;26.65;14.98;;;;;;;11.35;100.00;97489.12;4421955;32;20094;-77
2022/09/27 01:23:30;;;;;;;23.67;15.25;;;;;;;11.43;100.00;97483.00;4422430;32;20097;-78
2022/09/27 01:26:03;;;;;;;21.80;14.65;;;;;;;11.43;100.00;97481.22;4422426;32;20111;-77
2022/09/27 01:28:45;;;;;;;27.70;15.65;;;;;;;11.43;100.00;97477.78;4422093;32;20125;-77
2022/09/27 01:31:37;;;;;;;28.17;16.33;;;;;;;11.46;100.00;97462.53;4421275;32;20156;-77
2022/09/27 01:34:32;;;;;;;26.05;16.50;;;;;;;11.46;100.00;97467.78;4422515;32;20491;-77
2022/09/27 01:37:09;;;;;;;23.90;15.95;;;;;;;11.36;100.00;97467.19;4421004;32;20097;-77
2022/09/27 01:40:07;;;;;;;26.90;15.98;;;;;;;11.31;100.00;97467.69;4420853;32;20082;-77
2022/09/27 01:42:52;;;;;;;23.05;15.07;;;;;;;11.22;100.00;97460.03;4406784;32;20544;-77
2022/09/27 01:45:30;;;;;;;26.02;15.75;;;;;;;11.14;100.00;97453.88;4393608;32;20131;-77
2022/09/27 01:48:10;;;;;;;27.48;15.82;;;;;;;11.08;100.00;97446.72;4407078;32;20128;-78
2022/09/27 01:50:44;;;;;;;26.42;16.30;;;;;;;11.10;100.00;97444.72;4405845;32;20086;-77
2022/09/27 01:53:16;;;;;;;30.35;16.52;;;;;;;11.09;100.00;97444.91;4405660;32;20106;-78
2022/09/27 01:55:47;;;;;;;27.33;17.02;;;;;;;11.03;100.00;97432.50;4393152;32;20106;-77
2022/09/27 01:58:22;;;;;;;23.98;15.82;;;;;;;10.95;100.00;97425.50;4405559;32;20105;-77
2022/09/27 02:00:50;;;;;;;;;;;;;;;10.86;100.00;97423.91;4405888;32;20101;-77
2022/09/27 02:03:32;;;;;;;29.02;16.12;;;;;;;10.77;100.00;97423.13;4405406;32;19989;-77
2022/09/27 02:06:27;;;;;;;23.75;15.85;;;;;;;10.72;100.00;97423.66;4406808;32;20098;-77
2022/09/27 02:09:17;;;;;;;25.33;14.07;;;;;;;10.61;100.00;97426.63;4420708;32;20094;-77
2022/09/27 02:11:49;;;;;;;23.27;14.25;;;;;;;10.50;100.00;97424.41;4420206;32;20081;-77
2022/09/27 02:14:28;;;;;;;23.65;15.18;;;;;;;10.37;100.00;97432.78;4420356;32;20098;-77
2022/09/27 02:17:03;;;;;;;28.65;16.50;;;;;;;10.27;100.00;97435.56;4421817;32;20090;-77
2022/09/27 02:19:45;;;;;;;27.65;15.63;;;;;;;10.27;100.00;97432.94;4420607;32;20504;-77
2022/09/27 02:22:24;;;;;;;26.17;15.43;;;;;;;10.18;100.00;97429.53;4421618;32;20151;-77
2022/09/27 02:25:09;;;;;;;24.92;14.48;;;;;;;10.07;100.00;97427.28;4421649;32;20143;-77
2022/09/27 02:28:04;;;;;;;26.15;14.52;;;;;;;10.00;100.00;97416.66;4424122;32;20085;-77
2022/09/27 02:30:32;;;;;;;23.50;13.65;;;;;;;9.94;100.00;97420.75;4375808;32;20094;-77
2022/09/27 02:33:01;;;;;;;26.17;15.07;;;;;;;9.91;100.00;97415.03;4375980;32;20476;-77
2022/09/27 02:35:31;;;;;;;25.85;16.35;;;;;;;9.92;100.00;97411.44;4375803;32;20589;-77
2022/09/27 02:37:58;;;;;;;26.08;16.05;;;;;;;9.96;100.00;97407.50;4375818;32;20125;-78
2022/09/27 02:40:30;;;;;;;24.92;15.13;;;;;;;10.03;100.00;97408.47;4373934;32;20125;-77
2022/09/27 02:42:59;;;;;;;24.50;14.23;;;;;;;10.06;100.00;97407.31;4361015;32;20484;-77
2022/09/27 02:45:43;;;;;;;24.17;15.30;;;;;;;10.00;100.00;97406.19;4348815;32;20130;-77
2022/09/27 02:48:49;;;;;;;25.92;14.45;;;;;;;9.97;100.00;97408.31;4373463;32;20657;-77
2022/09/27 02:51:32;;;;;;;27.98;14.52;;;;;;;9.93;100.00;97405.22;4361167;32;20131;-77
2022/09/27 02:54:22;;;;;;;24.90;14.02;;;;;;;9.93;100.00;97402.59;4360650;32;20118;-77
2022/09/27 02:57:08;;;;;;;26.37;15.40;;;;;;;10.00;100.00;97395.72;4346012;33;20500;-77
2022/09/27 03:00:15;;;;;;;26.42;14.30;;;;;;;9.90;100.00;97397.69;4346179;33;20848;-77
2022/09/27 03:02:50;;;;;;;24.70;13.73;;;;;;;9.86;100.00;97397.22;4346073;33;20123;-77
2022/09/27 03:05:31;;;;;;;25.92;15.13;;;;;;;9.76;100.00;97392.19;4345950;33;20583;-77
2022/09/27 03:07:58;;;;;;;23.62;14.30;;;;;;;9.70;100.00;97386.78;4374310;32;20117;-77
2022/09/27 03:10:29;;;;;;;21.90;13.77;;;;;;;9.68;100.00;97386.16;4393306;32;20101;-77
2022/09/27 03:12:57;;;;;;;25.45;14.70;;;;;;;9.63;100.00;97385.81;4405850;32;20102;-77
2022/09/27 03:15:25;;;;;;;30.17;14.23;;;;;;;9.65;100.00;97389.91;4405819;32;20074;-77
2022/09/27 03:17:52;;;;;;;27.30;14.40;;;;;;;9.68;100.00;97388.75;4405752;32;20182;-77
2022/09/27 03:20:21;;;;;;;25.10;15.05;;;;;;;9.65;100.00;97387.28;4405818;32;20105;-77
2022/09/27 03:22:48;;;;;;;20.45;13.05;;;;;;;9.62;100.00;97382.38;4405995;32;20494;-77
2022/09/27 03:25:16;;;;;;;23.08;13.30;;;;;;;9.62;100.00;97387.63;4405659;32;20132;-77
2022/09/27 03:27:43;;;;;;;22.77;12.65;;;;;;;9.67;100.00;97382.69;4406000;32;20564;-77
2022/09/27 03:30:12;;;;;;;20.88;13.13;;;;;;;9.71;100.00;97383.19;4405754;32;20141;-76
2022/09/27 03:32:45;;;;;;;29.77;13.05;;;;;;;9.70;100.00;97381.56;4405742;32;20181;-77
2022/09/27 03:35:17;;;;;;;33.85;13.45;;;;;;;9.68;100.00;97379.09;4423386;32;20107;-77
2022/09/27 03:37:46;;;;;;;41.05;12.73;;;;;;;9.73;100.00;97382.03;4422948;32;20102;-78
2022/09/27 03:40:13;;;;;;;31.87;12.55;;;;;;;9.82;100.00;97379.41;4422915;32;20115;-77
2022/09/27 03:42:40;;;;;;;26.40;11.82;;;;;;;9.92;100.00;97380.06;4423215;32;20093;-77
2022/09/27 03:45:13;;;;;;;21.03;12.27;;;;;;;9.93;100.00;97381.66;4423435;32;20581;-77
2022/09/27 03:47:41;;;;;;;24.17;13.55;;;;;;;9.88;100.00;97371.72;4423507;32;20125;-77
2022/09/27 03:50:10;;;;;;;27.20;13.35;;;;;;;9.90;100.00;97366.31;4423424;32;20102;-78
2022/09/27 03:52:37;;;;;;;27.25;14.10;;;;;;;9.92;100.00;97374.81;4409463;32;20085;-77
2022/09/27 03:55:05;;;;;;;132.30;17.52;;;;;;;9.98;100.00;97373.31;4422920;32;20093;-77
2022/09/27 03:57:33;;;;;;;155.52;17.17;;;;;;;9.97;100.00;97369.91;4423237;32;20124;-77
2022/09/27 04:00:00;;;;;;;213.55;20.90;;;;;;;10.00;100.00;97377.41;4423316;32;20519;-78
2022/09/27 04:02:29;;;;;;;200.30;22.17;;;;;;;10.01;100.00;97372.97;4423454;32;20102;-77
2022/09/27 04:05:05;;;;;;;291.30;19.55;;;;;;;10.03;100.00;97374.44;4423110;32;20912;-77
2022/09/27 04:07:33;;;;;;;171.82;17.62;;;;;;;10.02;100.00;97375.47;4422100;32;20129;-78
2022/09/27 04:10:01;;;;;;;282.02;20.02;;;;;;;9.98;100.00;97366.31;4422665;32;20154;-78
2022/09/27 04:12:29;;;;;;;261.80;21.90;;;;;;;9.97;100.00;97369.91;4423248;32;20146;-77
2022/09/27 04:14:56;;;;;;;322.20;23.20;;;;;;;9.97;100.00;97369.91;4422876;32;20470;-78
2022/09/27 04:17:26;;;;;;;213.23;19.62;;;;;;;9.99;100.00;97375.75;4422900;32;20101;-77
2022/09/27 04:19:55;;;;;;;249.57;22.75;;;;;;;10.02;100.00;97370.22;4423181;32;20159;-78
2022/09/27 04:22:22;;;;;;;224.43;23.98;;;;;;;10.05;100.00;97369.88;4423137;32;20101;-78
2022/09/27 04:24:49;;;;;;;264.30;26.87;;;;;;;10.15;100.00;97363.63;4422850;32;20119;-77
2022/09/27 04:27:18;;;;;;;223.18;24.58;;;;;;;10.21;100.00;97353.28;4423140;32;20120;-77
2022/09/27 04:29:48;;;;;;;233.45;22.17;;;;;;;10.29;100.00;97353.28;4422970;32;20105;-77
2022/09/27 04:32:18;;;;;;;164.15;21.12;;;;;;;10.27;100.00;97343.97;4423022;32;20540;-78
2022/09/27 04:37:33;;;;;;;300.60;25.90;;;;;;;10.32;100.00;97344.25;4419921;32;20423;-78
2022/09/27 04:40:00;;;;;;;274.80;25.83;;;;;;;10.32;100.00;97346.88;4422549;32;20411;-78
2022/09/27 04:42:28;;;;;;;205.15;23.65;;;;;;;10.35;100.00;97338.72;4420565;32;20093;-78
2022/09/27 04:44:55;;;;;;;169.80;21.90;;;;;;;10.38;100.00;97342.78;4422092;32;20089;-78
2022/09/27 04:47:23;;;;;;;163.62;22.50;;;;;;;10.40;100.00;97341.66;4421099;32;20098;-78
2022/09/27 04:49:50;;;;;;;164.05;25.30;;;;;;;10.45;100.00;97341.13;4420098;32;20086;-78
2022/09/27 04:52:17;;;;;;;155.27;21.08;;;;;;;10.51;100.00;97336.97;4419702;32;20101;-78
2022/09/27 04:54:45;;;;;;;151.80;20.75;;;;;;;10.53;100.00;97335.03;4421683;32;20178;-78
2022/09/27 04:57:13;;;;;;;117.18;18.58;;;;;;;10.65;100.00;97329.22;4421633;32;20135;-78
2022/09/27 04:59:41;;;;;;;151.10;21.33;;;;;;;10.67;100.00;97333.47;4421491;32;20089;-79
2022/09/27 05:02:09;;;;;;;130.20;19.23;;;;;;;10.68;100.00;97333.31;4422081;32;20128;-79
2022/09/27 05:04:36;;;;;;;177.45;23.20;;;;;;;10.74;100.00;97332.59;4417305;32;20163;-78
2022/09/27 05:07:04;;;;;;;134.50;21.10;;;;;;;10.77;100.00;97329.62;4416245;32;20128;-79
2022/09/27 05:09:33;;;;;;;251.48;28.20;;;;;;;10.92;100.00;97331.53;4416919;32;20101;-79
2022/09/27 05:12:00;;;;;;;177.65;24.52;;;;;;;10.80;100.00;97328.47;4423585;32;20160;-79
2022/09/27 05:14:32;;;;;;;207.75;25.85;;;;;;;10.87;100.00;97323.34;4420284;32;20085;-78
2022/09/27 05:17:01;;;;;;;191.27;21.10;;;;;;;10.75;100.00;97317.69;4422015;32;20109;-77
2022/09/27 05:19:29;;;;;;;175.43;22.98;;;;;;;10.82;100.00;97321.25;4417541;32;20608;-79
2022/09/27 05:22:03;;;;;;;137.98;21.67;;;;;;;10.82;100.00;97313.41;4417358;32;20125;-79
2022/09/27 05:24:32;;;;;;;217.30;23.10;;;;;;;10.78;100.00;97306.88;4418835;32;20112;-79
2022/09/27 05:27:00;;;;;;;151.85;21.30;;;;;;;10.79;100.00;97305.88;4419046;32;20175;-79
2022/09/27 05:29:27;;;;;;;111.20;20.67;;;;;;;10.84;100.00;97300.94;4417527;32;20477;-79
2022/09/27 05:31:56;;;;;;;136.68;21.30;;;;;;;10.81;100.00;97291.62;4420680;32;20180;-78
2022/09/27 05:34:24;;;;;;;153.68;25.35;;;;;;;10.82;100.00;97300.28;4420259;32;20136;-77
2022/09/27 05:36:52;;;;;;;72.93;19.35;;;;;;;10.79;100.00;97296.22;4419746;32;20460;-78
2022/09/27 05:39:19;;;;;;;83.40;21.00;;;;;;;10.88;100.00;97290.94;4414389;32;20106;-77
2022/09/27 05:41:49;;;;;;;77.12;20.25;;;;;;;10.83;100.00;97287.03;4419801;32;20090;-77
2022/09/27 05:44:17;;;;;;;108.47;20.77;;;;;;;10.91;100.00;97296.63;4417923;32;20089;-77
2022/09/27 05:46:47;;;;;;;75.80;19.77;;;;;;;11.01;100.00;97304.25;4421824;32;20120;-77
2022/09/27 05:49:14;;;;;;;175.50;27.60;;;;;;;11.07;100.00;97305.38;4425932;32;20121;-77
2022/09/27 05:51:42;;;;;;;119.15;21.85;;;;;;;11.10;100.00;97310.25;4419882;32;20168;-77
2022/09/27 05:54:10;;;;;;;103.75;23.12;;;;;;;11.27;100.00;97303.06;4408420;32;20166;-78
2022/09/27 05:56:37;;;;;;;112.28;20.85;;;;;;;11.35;100.00;97293.31;4420654;32;20097;-79
2022/09/27 05:59:05;;;;;;;107.35;21.98;;;;;;;11.48;100.00;97295.31;4421379;32;20167;-78
2022/09/27 06:01:34;;;;;;;61.50;20.50;;;;;;;11.60;100.00;97294.87;4422940;32;20105;-77
2022/09/27 06:04:05;;;;;;;90.65;20.62;;;;;;;11.66;100.00;97289.72;4422492;32;20089;-78
2022/09/27 06:06:35;;;;;;;90.25;21.33;;;;;;;11.80;100.00;97292.53;4421806;32;20114;-78
2022/09/27 06:09:03;;;;;;;147.02;22.62;;;;;;;11.88;100.00;97288.00;4422723;32;20127;-78
2022/09/27 06:11:31;;;;;;;174.73;24.17;;;;;;;11.94;100.00;97296.16;4424986;32;20458;-78
2022/09/27 06:13:58;;;;;;;203.62;29.37;;;;;;;11.93;100.00;97297.16;4423550;32;20120;-76
2022/09/27 06:16:26;;;;;;;195.82;25.52;;;;;;;11.93;100.00;97297.16;4420729;32;20175;-77
2022/09/27 06:18:53;;;;;;;213.37;29.10;;;;;;;11.87;100.00;97302.13;4421329;32;20161;-77
2022/09/27 06:21:21;;;;;;;125.53;26.40;;;;;;;11.93;100.00;97299.78;4418849;32;20128;-81
2022/09/27 06:23:49;;;;;;;152.15;26.33;;;;;;;12.09;100.00;97314.53;4422729;32;20582;-81
2022/09/27 06:26:20;;;;;;;197.30;27.37;;;;;;;12.20;100.00;97301.75;4422068;32;20147;-78
2022/09/27 06:28:49;;;;;;;187.32;27.73;;;;;;;12.25;100.00;97299.38;4419603;32;20128;-78
2022/09/27 06:31:16;;;;;;;165.00;26.60;;;;;;;12.23;100.00;97297.94;4427472;32;20101;-79
2022/09/27 06:33:45;;;;;;;101.93;23.75;;;;;;;12.10;100.00;97303.03;4423955;32;20101;-77
2022/09/27 06:36:13;;;;;;;100.62;23.38;;;;;;;12.38;100.00;97296.13;4421856;32;20762;-82
2022/09/27 06:38:41;;;;;;;108.75;24.58;;;;;;;12.43;100.00;97295.56;4426072;32;20097;-81
2022/09/27 06:41:09;;;;;;;110.37;21.77;;;;;;;12.56;100.00;97284.38;4424982;32;20465;-78
2022/09/27 06:43:36;;;;;;;106.47;21.98;;;;;;;12.75;100.00;97285.59;4432378;32;20135;-80
2022/09/27 06:46:04;;;;;;;64.93;19.85;;;;;;;12.89;100.00;97279.44;4421060;32;20097;-80
2022/09/27 06:48:34;;;;;;;118.03;21.02;;;;;;;12.95;100.00;97289.19;4423378;32;20167;-80
2022/09/27 06:51:03;;;;;;;89.78;19.85;;;;;;;13.01;100.00;97297.34;4410264;32;20125;-77
2022/09/27 06:53:31;;;;;;;112.88;24.58;;;;;;;12.92;100.00;97315.06;4422649;32;20151;-77
2022/09/27 06:55:59;;;;;;;105.82;22.13;;;;;;;12.91;100.00;97318.66;4422722;32;20171;-80
2022/09/27 07:01:16;;;;;;;181.85;24.12;;;;;;;12.37;100.00;97309.41;4419590;32;20102;-83
2022/09/27 07:03:49;;;;;;;268.20;25.20;;;;;;;12.23;100.00;97311.06;4421731;32;20149;-86
2022/09/27 07:06:19;;;;;;;317.45;26.33;;;;;;;12.03;100.00;97313.44;4425322;32;20102;-81
2022/09/27 07:08:51;;;;;;;233.20;22.90;;;;;;;12.10;100.00;97311.72;4424175;32;20124;-83
2022/09/27 07:11:21;;;;;;;293.50;25.20;;;;;;;12.11;100.00;97307.28;4425938;32;20132;-83
2022/09/27 07:13:50;;;;;;;222.48;24.10;;;;;;;12.28;100.00;97305.25;4422369;32;20519;-81
2022/09/27 07:16:18;;;;;;;217.30;25.55;;;;;;;12.24;100.00;97295.13;4428231;32;20085;-85
2022/09/27 07:18:47;;;;;;;114.37;19.87;;;;;;;12.42;100.00;97305.22;4428716;32;20086;-78
2022/09/27 07:21:15;;;;;;;81.60;17.42;;;;;;;12.76;100.00;97308.22;4430095;32;20497;-78
2022/09/27 07:23:42;;;;;;;98.62;19.73;;;;;;;12.68;100.00;97305.72;4423823;32;20093;-78
2022/09/27 07:26:11;;;;;;;66.37;19.33;;;;;;;12.76;100.00;97295.06;4434418;32;20098;-77
2022/09/27 07:28:40;;;;;;;52.53;17.33;;;;;;;12.99;100.00;97296.69;4436332;32;20105;-78
2022/09/27 07:31:08;;;;;;;39.75;17.65;;;;;;;13.04;100.00;97302.22;4423572;32;20132;-78
2022/09/27 07:33:35;;;;;;;38.10;18.77;;;;;;;13.11;100.00;97300.44;4423646;32;20093;-82
2022/09/27 07:36:10;;;;;;;42.53;17.73;;;;;;;13.23;100.00;97296.31;4421873;32;20121;-77
2022/09/27 07:38:38;;;;;;;37.63;17.00;;;;;;;13.20;100.00;97295.87;4431249;32;20183;-78
2022/09/27 07:41:11;;;;;;;37.50;17.98;;;;;;;13.10;100.00;97290.94;4425134;32;20094;-78
2022/09/27 07:43:39;;;;;;;32.97;16.40;;;;;;;13.32;100.00;97289.06;4406370;32;20093;-76
2022/09/27 07:46:07;;;;;;;27.70;16.50;;;;;;;13.38;100.00;97292.78;4420007;32;20109;-78
2022/09/27 07:48:34;;;;;;;32.42;18.23;;;;;;;13.64;100.00;97302.69;4423391;32;20128;-83
2022/09/27 07:51:02;;;;;;;27.52;15.35;;;;;;;13.63;100.00;97304.50;4424647;32;20109;-84
2022/09/27 07:53:33;;;;;;;29.20;16.30;;;;;;;13.60;100.00;97297.00;4421032;32;20157;-81
2022/09/27 07:56:02;;;;;;;30.70;17.08;;;;;;;13.81;100.00;97303.22;4420749;32;20121;-78
2022/09/27 07:58:31;;;;;;;30.85;17.42;;;;;;;13.69;100.00;97299.47;4425630;32;20991;-79
2022/09/27 08:00:59;;;;;;;25.65;15.98;;;;;;;13.60;100.00;97301.47;4420481;32;20097;-81
2022/09/27 08:03:27;;;;;;;33.85;16.92;;;;;;;13.51;100.00;97287.63;4423173;32;20458;-77
2022/09/27 08:05:54;;;;;;;26.17;15.77;;;;;;;13.38;100.00;97292.78;4420067;32;20102;-79
2022/09/27 08:08:23;;;;;;;26.65;16.23;;;;;;;13.13;100.00;97291.38;4421263;32;20093;-79
2022/09/27 08:10:51;;;;;;;34.25;17.37;;;;;;;13.07;100.00;97307.09;4421421;32;20115;-78
2022/09/27 08:13:19;;;;;;;37.38;18.27;;;;;;;12.80;100.00;97309.47;4422498;32;20102;-77
2022/09/27 08:15:47;;;;;;;39.05;16.98;;;;;;;12.68;100.00;97311.78;4418803;32;20102;-82
2022/09/27 08:18:16;;;;;;;51.17;17.87;;;;;;;12.75;100.00;97304.78;4419274;32;20123;-80
2022/09/27 08:20:44;;;;;;;45.97;17.95;;;;;;;12.59;100.00;97311.06;4421856;32;20118;-77
2022/09/27 08:23:14;;;;;;;60.90;19.17;;;;;;;12.63;100.00;97311.53;4417519;32;20172;-79
2022/09/27 08:25:42;;;;;;;37.08;19.87;;;;;;;12.84;100.00;97302.84;4420985;32;20165;-78
2022/09/27 08:28:09;;;;;;;44.65;19.10;;;;;;;13.19;100.00;97289.81;4423547;32;20127;-76
2022/09/27 08:30:38;;;;;;;37.33;17.52;;;;;;;13.38;100.00;97295.44;4420917;32;20158;-78
2022/09/27 08:33:08;;;;;;;35.65;17.77;;;;;;;13.40;100.00;97290.78;4420438;32;20113;-80
2022/09/27 08:35:35;;;;;;;37.50;19.55;;;;;;;13.31;100.00;97298.78;4422138;32;20127;-76
2022/09/27 08:38:04;;;;;;;32.10;18.20;;;;;;;13.31;100.00;97301.41;4419563;32;20109;-77
2022/09/27 08:40:42;;;;;;;36.00;18.75;;;;;;;13.39;100.00;97299.69;4421164;32;20136;-79
2022/09/27 08:43:31;;;;;;;34.00;16.90;;;;;;;13.18;100.00;97300.50;4419677;32;20163;-76
2022/09/27 08:46:11;;;;;;;55.83;17.83;;;;;;;13.19;100.00;97296.88;4422922;32;20526;-75
2022/09/27 08:48:39;;;;;;;49.40;18.45;;;;;;;13.22;100.00;97299.12;4414207;32;20136;-76
2022/09/27 08:51:10;;;;;;;44.83;17.62;;;;;;;13.13;100.00;97296.63;4420983;32;20085;-76
2022/09/27 08:53:52;;;;;;;49.22;19.40;;;;;;;12.90;100.00;97283.69;4412852;32;20090;-75
2022/09/27 08:56:20;;;;;;;72.05;20.23;;;;;;;12.93;100.00;97287.78;4414972;32;20102;-76
2022/09/27 08:58:51;;;;;;;54.95;19.42;;;;;;;12.81;100.00;97286.63;4409241;32;20101;-76
2022/09/27 09:01:19;;;;;;;42.72;18.67;;;;;;;12.73;100.00;97279.69;4428291;32;20093;-77
2022/09/27 09:03:56;;;;;;;86.90;18.80;;;;;;;12.73;100.00;97290.19;4420443;32;20082;-76
2022/09/27 09:06:45;;;;;;;47.22;18.15;;;;;;;12.63;100.00;97279.16;4419345;32;20122;-77
2022/09/27 09:09:18;;;;;;;97.35;19.55;;;;;;;12.62;100.00;97277.56;4417397;32;20725;-79
2022/09/27 09:15:03;;;;;;;106.82;20.27;;;;;;;12.82;100.00;97268.03;4407804;32;20116;-77
2022/09/27 09:17:38;;;;;;;107.53;20.55;;;;;;;12.86;100.00;97269.28;4425376;32;20093;-76
2022/09/27 09:20:41;;;;;;;111.97;21.00;;;;;;;12.99;100.00;97267.78;4419096;32;20094;-76
2022/09/27 09:23:45;;;;;;;93.95;20.48;;;;;;;13.19;100.00;97263.50;4421183;32;20093;-77
2022/09/27 09:26:17;;;;;;;75.30;17.77;;;;;;;13.46;100.00;97256.66;4420055;32;20151;-79
2022/09/27 09:29:09;;;;;;;65.43;16.23;;;;;;;13.48;100.00;97256.44;4417443;32;20098;-75
2022/09/27 09:31:44;;;;;;;71.85;15.93;;;;;;;13.41;100.00;97263.47;4422045;32;20097;-74
2022/09/27 09:34:17;;;;;;;71.07;18.25;;;;;;;13.23;100.00;97262.13;4420791;32;20082;-75
2022/09/27 09:37:11;;;;;;;65.35;17.85;;;;;;;13.30;100.00;97259.53;4421197;32;20085;-75
2022/09/27 09:39:44;;;;;;;56.70;16.20;;;;;;;13.44;100.00;97250.78;4374342;32;20115;-74
2022/09/27 09:42:14;;;;;;;36.50;15.65;;;;;;;13.49;100.00;97253.62;4372831;32;20534;-74
2022/09/27 09:44:53;;;;;;;48.42;17.12;;;;;;;13.61;100.00;97261.78;4373446;32;20091;-73
2022/09/27 09:47:34;;;;;;;52.70;16.85;;;;;;;13.53;100.00;97248.78;4373777;32;20536;-74
2022/09/27 09:50:05;;;;;;;40.35;16.80;;;;;;;13.60;100.00;97244.38;4363578;32;20136;-74
2022/09/27 09:52:43;;;;;;;55.47;16.92;;;;;;;13.59;100.00;97252.47;4364509;32;20103;-74
2022/09/27 09:55:18;;;;;;;80.68;18.30;;;;;;;13.44;100.00;97249.94;4376250;32;20117;-74
2022/09/27 09:57:58;;;;;;;74.18;18.77;;;;;;;13.25;100.00;97246.97;4374550;32;20099;-75
2022/09/27 10:00:26;;;;;;;89.13;20.80;;;;;;;13.39;100.00;97249.72;4363681;32;20129;-74
2022/09/27 10:02:54;;;;;;;81.50;16.60;;;;;;;13.17;100.00;97247.13;4362362;32;20139;-74
2022/09/27 10:05:23;;;;;;;56.28;17.67;;;;;;;13.32;100.00;97239.94;4361288;32;20527;-74
2022/09/27 10:07:53;;;;;;;85.97;19.45;;;;;;;13.29;100.00;97242.13;4355396;32;20197;-76
2022/09/27 10:10:21;;;;;;;84.85;18.58;;;;;;;13.17;100.00;97241.03;4362052;32;20163;-74
2022/09/27 10:12:51;;;;;;;59.28;20.12;;;;;;;13.15;100.00;97235.97;4362396;32;20180;-75
2022/09/27 10:15:22;;;;;;;44.70;20.05;;;;;;;13.13;100.00;97230.91;4373907;32;20091;-75
2022/09/27 10:17:52;;;;;;;40.33;20.12;;;;;;;13.14;100.00;97231.69;4415094;32;20101;-74
2022/09/27 10:20:26;;;;;;;41.72;18.12;;;;;;;13.32;100.00;97229.41;4416491;32;20454;-75
2022/09/27 10:22:58;;;;;;;39.17;18.55;;;;;;;13.48;100.00;97215.16;4406009;32;20110;-76
2022/09/27 10:25:57;;;;;;;44.53;18.83;;;;;;;13.59;100.00;97220.88;4416931;32;20437;-75
2022/09/27 10:28:41;;;;;;;58.08;18.33;;;;;;;13.77;100.00;97223.81;4422829;32;20085;-75
2022/09/27 10:31:14;;;;;;;28.25;16.50;;;;;;;13.64;100.00;97214.03;4418361;32;20173;-76
2022/09/27 10:33:58;;;;;;;34.28;18.62;;;;;;;13.56;100.00;97216.81;4407830;32;20160;-77
2022/09/27 10:36:29;;;;;;;34.10;18.20;;;;;;;13.58;100.00;97214.00;4430077;32;20181;-75
2022/09/27 10:39:00;;;;;;;30.77;16.98;;;;;;;13.81;100.00;97213.72;4422542;32;20164;-75
2022/09/27 10:41:38;;;;;;;28.42;17.08;;;;;;;13.88;100.00;97214.53;4420573;32;20158;-77
2022/09/27 10:44:27;;;;;;;30.25;17.27;;;;;;;13.96;100.00;97210.91;4421297;32;20443;-76
2022/09/27 10:46:59;;;;;;;27.95;14.45;;;;;;;13.95;100.00;97212.75;4418938;32;20121;-76
2022/09/27 10:49:40;;;;;;;26.95;14.27;;;;;;;13.98;100.00;97208.91;4425131;32;20624;-75
2022/09/27 10:52:29;;;;;;;24.58;14.77;;;;;;;14.11;100.00;97201.06;4432413;32;20173;-75
2022/09/27 10:54:59;;;;;;;25.15;14.87;;;;;;;14.34;100.00;97207.81;4423367;32;20116;-76
2022/09/27 10:57:28;;;;;;;27.02;14.82;;;;;;;14.31;100.00;97202.94;4414008;32;20162;-75
2022/09/27 11:00:01;;;;;;;30.48;16.00;;;;;;;14.63;100.00;97195.31;4406354;32;20093;-75
2022/09/27 11:02:36;;;;;;;25.98;15.57;;;;;;;14.71;100.00;97192.47;4413580;32;20089;-76
2022/09/27 11:05:22;;;;;;;20.98;13.82;;;;;;;14.75;100.00;97187.59;4420996;32;20098;-75
2022/09/27 11:07:53;;;;;;;20.42;13.02;;;;;;;14.82;100.00;97188.41;4428678;32;20537;-75
2022/09/27 11:10:27;;;;;;;22.65;12.48;;;;;;;15.08;100.00;97184.97;4421137;32;20131;-76
2022/09/27 11:13:11;;;;;;;20.00;12.37;;;;;;;15.60;100.00;97185.03;4423537;32;20105;-75
2022/09/27 11:15:48;;;;;;;;;;;;;;;15.63;100.00;97175.91;4422603;32;20184;-78
2022/09/27 11:18:21;;;;;;;18.50;11.88;;;;;;;15.66;100.00;97176.28;4426542;32;19985;-76
2022/09/27 11:21:25;;;;;;;19.15;12.10;;;;;;;15.65;100.00;97177.28;4424228;32;20116;-77
2022/09/27 11:24:08;;;;;;;16.90;11.30;;;;;;;15.77;100.00;97165.06;4419230;32;20097;-75
2022/09/27 11:26:43;;;;;;;19.30;11.80;;;;;;;15.55;100.00;97158.47;4417777;32;20184;-74
2022/09/27 11:29:24;;;;;;;21.27;13.05;;;;;;;15.34;100.00;97165.63;4417001;32;20744;-75
2022/09/27 11:32:24;;;;;;;18.35;11.85;;;;;;;15.55;100.00;97172.47;4419576;32;20119;-74
2022/09/27 11:35:01;;;;;;;17.45;10.75;;;;;;;15.58;100.00;97163.31;4421305;32;20090;-75
2022/09/27 11:38:13;;;;;;;17.33;11.07;;;;;;;15.77;100.00;97157.16;4421751;32;20147;-75
2022/09/27 11:41:20;;;;;;;17.52;10.43;;;;;;;16.12;100.00;97150.69;4431035;32;20119;-74
2022/09/27 11:44:01;;;;;;;17.67;10.32;;;;;;;16.18;100.00;97146.41;4427338;32;20112;-74
2022/09/27 11:46:29;;;;;;;19.40;10.50;;;;;;;16.12;100.00;97146.22;4424406;32;20090;-75